sensor_id;sensor_type;location;lat;lon;timestamp;P1;durP1;ratioP1;P2;durP2;ratioP2
22060;SDS011;11194;48.092;-1.382;2022-07-29T00:02:25;2.50;;;2.03;;
22060;SDS011;11194;48.092;-1.382;2022-07-29T00:04:51;4.32;;;2.45;;
22060;SDS011;11194;48.092;-1.382;2022-07-29T00:07:17;4.15;;;1.88;;
22060;SDS011;11194;48.092;-1.382;2022-07-29T00:09:44;4.47;;;2.03;;
22060;SDS011;11194;48.092;-1.382;2022-07-29T00:12:10;2.78;;;2.03;;
22060;SDS011;11194;48.092;-1.382;2022-07-29T00:14:36;7.00;;;2.20;;
22060;SDS011;11194;48.092;-1.382;2022-07-29T00:17:02;2.63;;;1.98;;
22060;SDS011;11194;48.092;-1.382;2022-07-29T00:19:28;4.70;;;2.20;;
22060;SDS011;11194;48.092;-1.382;2022-07-29T00:21:54;3.42;;;2.33;;
22060;SDS011;11194;48.092;-1.382;2022-07-29T00:24:20;4.65;;;2.03;;
22060;SDS011;11194;48.092;-1.382;2022-07-29T00:26:46;6.85;;;2.50;;
22060;SDS011;11194;48.092;-1.382;2022-07-29T00:29:12;5.38;;;2.20;;
22060;SDS011;11194;48.092;-1.382;2022-07-29T00:31:38;4.47;;;2.42;;
22060;SDS011;11194;48.092;-1.382;2022-07-29T00:34:04;5.50;;;2.15;;
22060;SDS011;11194;48.092;-1.382;2022-07-29T00:36:50;4.68;;;2.35;;
22060;SDS011;11194;48.092;-1.382;2022-07-29T00:39:16;6.45;;;2.03;;
22060;SDS011;11194;48.092;-1.382;2022-07-29T00:41:42;3.67;;;2.03;;
22060;SDS011;11194;48.092;-1.382;2022-07-29T00:44:08;3.42;;;2.47;;
22060;SDS011;11194;48.092;-1.382;2022-07-29T00:46:34;4.47;;;1.92;;
22060;SDS011;11194;48.092;-1.382;2022-07-29T00:49:00;3.85;;;2.05;;
22060;SDS011;11194;48.092;-1.382;2022-07-29T00:51:26;3.53;;;2.38;;
22060;SDS011;11194;48.092;-1.382;2022-07-29T00:53:53;3.30;;;2.00;;
22060;SDS011;11194;48.092;-1.382;2022-07-29T00:56:19;3.80;;;2.20;;
22060;SDS011;11194;48.092;-1.382;2022-07-29T00:58:46;4.15;;;2.10;;
22060;SDS011;11194;48.092;-1.382;2022-07-29T01:01:12;2.95;;;2.20;;
22060;SDS011;11194;48.092;-1.382;2022-07-29T01:03:38;4.55;;;2.13;;
22060;SDS011;11194;48.092;-1.382;2022-07-29T01:06:04;5.28;;;2.20;;
22060;SDS011;11194;48.092;-1.382;2022-07-29T01:08:31;2.55;;;2.03;;
22060;SDS011;11194;48.092;-1.382;2022-07-29T01:10:59;3.85;;;2.05;;
22060;SDS011;11194;48.092;-1.382;2022-07-29T01:13:25;4.30;;;2.08;;
22060;SDS011;11194;48.092;-1.382;2022-07-29T01:15:56;2.50;;;2.05;;
22060;SDS011;11194;48.092;-1.382;2022-07-29T01:18:24;5.35;;;2.20;;
22060;SDS011;11194;48.092;-1.382;2022-07-29T01:21:12;4.13;;;2.15;;
22060;SDS011;11194;48.092;-1.382;2022-07-29T04:00:41;2.55;;;1.75;;
22060;SDS011;11194;48.092;-1.382;2022-07-29T04:03:08;3.60;;;1.92;;
22060;SDS011;11194;48.092;-1.382;2022-07-29T04:05:35;5.13;;;2.08;;
22060;SDS011;11194;48.092;-1.382;2022-07-29T04:08:01;3.22;;;2.03;;
22060;SDS011;11194;48.092;-1.382;2022-07-29T04:10:27;2.65;;;1.83;;
22060;SDS011;11194;48.092;-1.382;2022-07-29T04:12:53;3.30;;;1.80;;
22060;SDS011;11194;48.092;-1.382;2022-07-29T04:15:19;2.97;;;1.80;;
22060;SDS011;11194;48.092;-1.382;2022-07-29T04:17:45;2.55;;;1.85;;
22060;SDS011;11194;48.092;-1.382;2022-07-29T04:20:11;2.92;;;1.90;;
22060;SDS011;11194;48.092;-1.382;2022-07-29T04:22:38;3.95;;;2.00;;
22060;SDS011;11194;48.092;-1.382;2022-07-29T04:25:04;4.53;;;2.08;;
22060;SDS011;11194;48.092;-1.382;2022-07-29T04:27:31;3.00;;;1.95;;
22060;SDS011;11194;48.092;-1.382;2022-07-29T04:29:57;2.58;;;1.95;;
22060;SDS011;11194;48.092;-1.382;2022-07-29T04:32:23;2.38;;;2.10;;
22060;SDS011;11194;48.092;-1.382;2022-07-29T04:34:49;4.75;;;2.10;;
22060;SDS011;11194;48.092;-1.382;2022-07-29T04:37:15;3.42;;;2.03;;
22060;SDS011;11194;48.092;-1.382;2022-07-29T04:39:41;2.30;;;2.10;;
22060;SDS011;11194;48.092;-1.382;2022-07-29T04:42:07;7.20;;;2.55;;
22060;SDS011;11194;48.092;-1.382;2022-07-29T04:44:33;3.85;;;2.00;;
22060;SDS011;11194;48.092;-1.382;2022-07-29T04:46:59;3.08;;;2.13;;
22060;SDS011;11194;48.092;-1.382;2022-07-29T04:49:25;4.78;;;1.98;;
22060;SDS011;11194;48.092;-1.382;2022-07-29T04:51:51;3.33;;;2.13;;
22060;SDS011;11194;48.092;-1.382;2022-07-29T04:54:18;4.10;;;2.13;;
22060;SDS011;11194;48.092;-1.382;2022-07-29T04:56:44;2.55;;;2.10;;
22060;SDS011;11194;48.092;-1.382;2022-07-29T04:59:11;3.55;;;2.53;;
22060;SDS011;11194;48.092;-1.382;2022-07-29T05:01:37;3.80;;;2.67;;
22060;SDS011;11194;48.092;-1.382;2022-07-29T05:04:03;6.10;;;2.30;;
22060;SDS011;11194;48.092;-1.382;2022-07-29T05:06:29;2.58;;;1.92;;
22060;SDS011;11194;48.092;-1.382;2022-07-29T05:08:55;4.90;;;2.40;;
22060;SDS011;11194;48.092;-1.382;2022-07-29T05:11:21;4.35;;;2.30;;
22060;SDS011;11194;48.092;-1.382;2022-07-29T05:13:47;3.13;;;2.28;;
22060;SDS011;11194;48.092;-1.382;2022-07-29T05:16:13;3.55;;;2.20;;
22060;SDS011;11194;48.092;-1.382;2022-07-29T05:18:39;4.28;;;2.10;;
22060;SDS011;11194;48.092;-1.382;2022-07-29T05:21:05;2.35;;;2.15;;
22060;SDS011;11194;48.092;-1.382;2022-07-29T05:23:31;2.67;;;2.08;;
22060;SDS011;11194;48.092;-1.382;2022-07-29T05:25:57;3.72;;;2.00;;
22060;SDS011;11194;48.092;-1.382;2022-07-29T05:28:23;5.80;;;1.98;;
22060;SDS011;11194;48.092;-1.382;2022-07-29T05:30:49;2.47;;;1.40;;
22060;SDS011;11194;48.092;-1.382;2022-07-29T05:33:15;3.90;;;2.00;;
22060;SDS011;11194;48.092;-1.382;2022-07-29T05:35:41;3.83;;;1.63;;
22060;SDS011;11194;48.092;-1.382;2022-07-29T05:38:07;3.95;;;1.98;;
22060;SDS011;11194;48.092;-1.382;2022-07-29T05:40:33;7.00;;;2.00;;
22060;SDS011;11194;48.092;-1.382;2022-07-29T05:42:59;3.60;;;2.13;;
22060;SDS011;11194;48.092;-1.382;2022-07-29T05:45:26;4.70;;;2.00;;
22060;SDS011;11194;48.092;-1.382;2022-07-29T05:47:52;6.28;;;2.10;;
22060;SDS011;11194;48.092;-1.382;2022-07-29T05:50:18;3.78;;;2.50;;
22060;SDS011;11194;48.092;-1.382;2022-07-29T05:52:44;3.53;;;2.05;;
22060;SDS011;11194;48.092;-1.382;2022-07-29T05:55:10;3.40;;;2.08;;
22060;SDS011;11194;48.092;-1.382;2022-07-29T05:57:36;8.35;;;2.47;;
22060;SDS011;11194;48.092;-1.382;2022-07-29T06:00:02;4.70;;;2.33;;
22060;SDS011;11194;48.092;-1.382;2022-07-29T06:02:29;4.63;;;2.42;;
22060;SDS011;11194;48.092;-1.382;2022-07-29T06:04:55;4.07;;;2.30;;
22060;SDS011;11194;48.092;-1.382;2022-07-29T06:07:21;4.30;;;2.25;;
22060;SDS011;11194;48.092;-1.382;2022-07-29T06:09:47;4.85;;;2.22;;
22060;SDS011;11194;48.092;-1.382;2022-07-29T06:12:13;5.80;;;2.20;;
22060;SDS011;11194;48.092;-1.382;2022-07-29T06:14:39;4.57;;;2.30;;
22060;SDS011;11194;48.092;-1.382;2022-07-29T06:17:05;5.35;;;2.20;;
22060;SDS011;11194;48.092;-1.382;2022-07-29T06:19:33;5.95;;;2.38;;
22060;SDS011;11194;48.092;-1.382;2022-07-29T06:22:00;6.55;;;2.28;;
22060;SDS011;11194;48.092;-1.382;2022-07-29T06:24:26;2.38;;;2.13;;
22060;SDS011;11194;48.092;-1.382;2022-07-29T06:26:52;6.47;;;2.60;;
22060;SDS011;11194;48.092;-1.382;2022-07-29T06:29:18;10.50;;;2.70;;
22060;SDS011;11194;48.092;-1.382;2022-07-29T06:31:44;7.15;;;2.35;;
22060;SDS011;11194;48.092;-1.382;2022-07-29T06:34:10;5.47;;;2.30;;
22060;SDS011;11194;48.092;-1.382;2022-07-29T06:36:36;5.95;;;2.67;;
22060;SDS011;11194;48.092;-1.382;2022-07-29T06:39:05;7.63;;;2.33;;
22060;SDS011;11194;48.092;-1.382;2022-07-29T06:41:31;4.43;;;2.13;;
22060;SDS011;11194;48.092;-1.382;2022-07-29T06:43:58;5.22;;;2.30;;
22060;SDS011;11194;48.092;-1.382;2022-07-29T06:46:24;7.20;;;2.25;;
22060;SDS011;11194;48.092;-1.382;2022-07-29T06:48:50;4.65;;;2.15;;
22060;SDS011;11194;48.092;-1.382;2022-07-29T06:51:17;4.05;;;2.03;;
22060;SDS011;11194;48.092;-1.382;2022-07-29T06:53:43;3.63;;;2.08;;
22060;SDS011;11194;48.092;-1.382;2022-07-29T06:56:09;3.08;;;2.20;;
22060;SDS011;11194;48.092;-1.382;2022-07-29T06:58:37;14.75;;;2.30;;
22060;SDS011;11194;48.092;-1.382;2022-07-29T07:01:04;4.57;;;2.17;;
22060;SDS011;11194;48.092;-1.382;2022-07-29T07:03:30;5.75;;;2.55;;
22060;SDS011;11194;48.092;-1.382;2022-07-29T07:05:56;3.25;;;2.15;;
22060;SDS011;11194;48.092;-1.382;2022-07-29T07:08:22;5.88;;;2.28;;
22060;SDS011;11194;48.092;-1.382;2022-07-29T07:10:49;6.97;;;2.63;;
22060;SDS011;11194;48.092;-1.382;2022-07-29T07:13:15;4.25;;;2.20;;
22060;SDS011;11194;48.092;-1.382;2022-07-29T07:15:42;4.05;;;2.45;;
22060;SDS011;11194;48.092;-1.382;2022-07-29T07:18:08;3.53;;;2.00;;
22060;SDS011;11194;48.092;-1.382;2022-07-29T07:20:35;3.63;;;2.20;;
22060;SDS011;11194;48.092;-1.382;2022-07-29T07:23:01;5.07;;;2.30;;
22060;SDS011;11194;48.092;-1.382;2022-07-29T07:25:27;5.30;;;2.10;;
22060;SDS011;11194;48.092;-1.382;2022-07-29T07:27:53;4.78;;;2.40;;
22060;SDS011;11194;48.092;-1.382;2022-07-29T07:30:19;6.15;;;2.20;;
22060;SDS011;11194;48.092;-1.382;2022-07-29T07:32:45;2.88;;;1.90;;
22060;SDS011;11194;48.092;-1.382;2022-07-29T07:35:11;4.53;;;2.17;;
22060;SDS011;11194;48.092;-1.382;2022-07-29T07:37:38;6.25;;;2.20;;
22060;SDS011;11194;48.092;-1.382;2022-07-29T07:40:05;4.28;;;2.22;;
22060;SDS011;11194;48.092;-1.382;2022-07-29T07:42:32;2.60;;;2.17;;
22060;SDS011;11194;48.092;-1.382;2022-07-29T07:44:58;4.05;;;2.20;;
22060;SDS011;11194;48.092;-1.382;2022-07-29T07:47:24;3.72;;;2.20;;
22060;SDS011;11194;48.092;-1.382;2022-07-29T07:49:50;4.03;;;2.15;;
22060;SDS011;11194;48.092;-1.382;2022-07-29T07:52:17;4.10;;;2.35;;
22060;SDS011;11194;48.092;-1.382;2022-07-29T07:54:43;4.97;;;2.30;;
22060;SDS011;11194;48.092;-1.382;2022-07-29T07:57:10;3.97;;;2.33;;
22060;SDS011;11194;48.092;-1.382;2022-07-29T07:59:36;4.63;;;2.15;;
22060;SDS011;11194;48.092;-1.382;2022-07-29T08:02:02;4.72;;;2.03;;
22060;SDS011;11194;48.092;-1.382;2022-07-29T08:04:28;4.10;;;2.20;;
22060;SDS011;11194;48.092;-1.382;2022-07-29T08:06:55;6.13;;;2.42;;
22060;SDS011;11194;48.092;-1.382;2022-07-29T08:09:21;2.72;;;2.00;;
22060;SDS011;11194;48.092;-1.382;2022-07-29T08:11:47;5.15;;;2.20;;
22060;SDS011;11194;48.092;-1.382;2022-07-29T08:14:13;6.85;;;2.58;;
22060;SDS011;11194;48.092;-1.382;2022-07-29T08:16:39;4.70;;;2.30;;
22060;SDS011;11194;48.092;-1.382;2022-07-29T08:19:07;2.88;;;2.00;;
22060;SDS011;11194;48.092;-1.382;2022-07-29T08:21:33;3.00;;;2.30;;
22060;SDS011;11194;48.092;-1.382;2022-07-29T08:23:59;3.45;;;2.10;;
22060;SDS011;11194;48.092;-1.382;2022-07-29T08:26:43;3.30;;;2.30;;
22060;SDS011;11194;48.092;-1.382;2022-07-29T08:29:10;4.57;;;2.53;;
22060;SDS011;11194;48.092;-1.382;2022-07-29T08:31:36;6.22;;;2.33;;
22060;SDS011;11194;48.092;-1.382;2022-07-29T08:34:02;6.22;;;2.35;;
22060;SDS011;11194;48.092;-1.382;2022-07-29T08:36:29;6.18;;;2.28;;
22060;SDS011;11194;48.092;-1.382;2022-07-29T08:38:55;3.33;;;2.00;;
22060;SDS011;11194;48.092;-1.382;2022-07-29T08:41:21;3.83;;;2.42;;
22060;SDS011;11194;48.092;-1.382;2022-07-29T08:43:48;5.57;;;2.50;;
22060;SDS011;11194;48.092;-1.382;2022-07-29T08:46:15;6.20;;;2.38;;
22060;SDS011;11194;48.092;-1.382;2022-07-29T08:48:42;4.95;;;2.28;;
22060;SDS011;11194;48.092;-1.382;2022-07-29T08:51:08;4.53;;;2.33;;
22060;SDS011;11194;48.092;-1.382;2022-07-29T08:53:39;7.32;;;2.60;;
22060;SDS011;11194;48.092;-1.382;2022-07-29T08:56:07;7.13;;;3.17;;
22060;SDS011;11194;48.092;-1.382;2022-07-29T08:58:36;10.35;;;3.38;;
22060;SDS011;11194;48.092;-1.382;2022-07-29T09:01:03;7.82;;;3.17;;
22060;SDS011;11194;48.092;-1.382;2022-07-29T09:03:30;14.40;;;3.00;;
22060;SDS011;11194;48.092;-1.382;2022-07-29T09:05:56;12.00;;;3.17;;
22060;SDS011;11194;48.092;-1.382;2022-07-29T09:08:23;11.90;;;3.05;;
22060;SDS011;11194;48.092;-1.382;2022-07-29T09:10:50;12.43;;;3.22;;
22060;SDS011;11194;48.092;-1.382;2022-07-29T09:13:17;7.75;;;3.55;;
22060;SDS011;11194;48.092;-1.382;2022-07-29T09:15:43;6.43;;;2.83;;
22060;SDS011;11194;48.092;-1.382;2022-07-29T09:18:10;4.97;;;2.90;;
22060;SDS011;11194;48.092;-1.382;2022-07-29T09:20:36;11.73;;;3.17;;
22060;SDS011;11194;48.092;-1.382;2022-07-29T09:23:20;12.48;;;3.35;;
22060;SDS011;11194;48.092;-1.382;2022-07-29T09:25:46;4.07;;;2.92;;
22060;SDS011;11194;48.092;-1.382;2022-07-29T09:28:13;8.85;;;3.15;;
22060;SDS011;11194;48.092;-1.382;2022-07-29T09:30:51;8.38;;;3.30;;
22060;SDS011;11194;48.092;-1.382;2022-07-29T09:33:17;8.60;;;3.28;;
22060;SDS011;11194;48.092;-1.382;2022-07-29T09:35:43;8.63;;;3.03;;
22060;SDS011;11194;48.092;-1.382;2022-07-29T09:38:13;7.00;;;3.20;;
22060;SDS011;11194;48.092;-1.382;2022-07-29T09:40:39;7.13;;;2.72;;
22060;SDS011;11194;48.092;-1.382;2022-07-29T09:43:12;7.03;;;2.20;;
22060;SDS011;11194;48.092;-1.382;2022-07-29T09:45:39;4.57;;;2.67;;
22060;SDS011;11194;48.092;-1.382;2022-07-29T09:48:15;5.40;;;2.35;;
22060;SDS011;11194;48.092;-1.382;2022-07-29T09:50:42;5.18;;;2.70;;
22060;SDS011;11194;48.092;-1.382;2022-07-29T09:53:09;4.55;;;2.70;;
22060;SDS011;11194;48.092;-1.382;2022-07-29T09:55:48;6.32;;;2.63;;
22060;SDS011;11194;48.092;-1.382;2022-07-29T09:58:15;5.15;;;2.17;;
22060;SDS011;11194;48.092;-1.382;2022-07-29T10:00:41;2.88;;;2.20;;
22060;SDS011;11194;48.092;-1.382;2022-07-29T10:03:08;4.28;;;2.20;;
22060;SDS011;11194;48.092;-1.382;2022-07-29T10:05:34;5.70;;;2.00;;
22060;SDS011;11194;48.092;-1.382;2022-07-29T10:08:00;4.60;;;2.67;;
22060;SDS011;11194;48.092;-1.382;2022-07-29T10:10:28;6.93;;;2.30;;
22060;SDS011;11194;48.092;-1.382;2022-07-29T10:12:57;12.60;;;2.63;;
22060;SDS011;11194;48.092;-1.382;2022-07-29T10:15:25;4.68;;;2.10;;
22060;SDS011;11194;48.092;-1.382;2022-07-29T10:17:52;5.10;;;2.30;;
22060;SDS011;11194;48.092;-1.382;2022-07-29T10:20:19;4.57;;;2.10;;
22060;SDS011;11194;48.092;-1.382;2022-07-29T10:22:46;10.23;;;2.70;;
22060;SDS011;11194;48.092;-1.382;2022-07-29T10:25:12;4.22;;;2.13;;
22060;SDS011;11194;48.092;-1.382;2022-07-29T10:27:39;3.70;;;2.22;;
22060;SDS011;11194;48.092;-1.382;2022-07-29T10:30:06;3.65;;;2.03;;
22060;SDS011;11194;48.092;-1.382;2022-07-29T10:32:40;8.38;;;2.40;;
22060;SDS011;11194;48.092;-1.382;2022-07-29T10:35:18;5.20;;;2.20;;
22060;SDS011;11194;48.092;-1.382;2022-07-29T10:38:08;6.47;;;2.47;;
22060;SDS011;11194;48.092;-1.382;2022-07-29T10:43:28;5.05;;;2.17;;
22060;SDS011;11194;48.092;-1.382;2022-07-29T10:45:55;5.13;;;2.05;;
22060;SDS011;11194;48.092;-1.382;2022-07-29T10:48:22;5.20;;;2.20;;
22060;SDS011;11194;48.092;-1.382;2022-07-29T10:51:01;4.82;;;2.20;;
22060;SDS011;11194;48.092;-1.382;2022-07-29T10:53:48;4.95;;;2.50;;
22060;SDS011;11194;48.092;-1.382;2022-07-29T11:01:35;5.35;;;2.20;;
22060;SDS011;11194;48.092;-1.382;2022-07-29T11:04:01;3.72;;;2.30;;
22060;SDS011;11194;48.092;-1.382;2022-07-29T11:07:00;4.55;;;2.00;;
22060;SDS011;11194;48.092;-1.382;2022-07-29T11:09:18;5.35;;;1.83;;
22060;SDS011;11194;48.092;-1.382;2022-07-29T11:11:44;9.73;;;2.38;;
22060;SDS011;11194;48.092;-1.382;2022-07-29T11:14:10;3.05;;;1.77;;
22060;SDS011;11194;48.092;-1.382;2022-07-29T11:19:22;2.60;;;1.80;;
22060;SDS011;11194;48.092;-1.382;2022-07-29T11:21:48;2.25;;;1.98;;
22060;SDS011;11194;48.092;-1.382;2022-07-29T11:24:18;5.00;;;2.00;;
22060;SDS011;11194;48.092;-1.382;2022-07-29T11:26:45;3.70;;;1.70;;
22060;SDS011;11194;48.092;-1.382;2022-07-29T11:29:31;1.90;;;1.70;;
22060;SDS011;11194;48.092;-1.382;2022-07-29T11:32:11;2.28;;;1.52;;
22060;SDS011;11194;48.092;-1.382;2022-07-29T11:34:39;2.42;;;1.75;;
22060;SDS011;11194;48.092;-1.382;2022-07-29T11:45:01;3.10;;;1.80;;
22060;SDS011;11194;48.092;-1.382;2022-07-29T11:47:30;2.97;;;1.80;;
22060;SDS011;11194;48.092;-1.382;2022-07-29T11:49:57;3.30;;;1.70;;
22060;SDS011;11194;48.092;-1.382;2022-07-29T11:52:31;3.83;;;1.60;;
22060;SDS011;11194;48.092;-1.382;2022-07-29T11:54:57;5.05;;;1.90;;
22060;SDS011;11194;48.092;-1.382;2022-07-29T11:57:26;4.32;;;1.88;;
22060;SDS011;11194;48.092;-1.382;2022-07-29T11:59:52;4.97;;;1.90;;
22060;SDS011;11194;48.092;-1.382;2022-07-29T12:02:19;8.77;;;2.15;;
22060;SDS011;11194;48.092;-1.382;2022-07-29T12:07:14;3.40;;;1.77;;
22060;SDS011;11194;48.092;-1.382;2022-07-29T12:09:46;7.15;;;2.42;;
22060;SDS011;11194;48.092;-1.382;2022-07-29T12:12:15;5.38;;;2.30;;
22060;SDS011;11194;48.092;-1.382;2022-07-29T12:14:41;6.38;;;2.30;;
22060;SDS011;11194;48.092;-1.382;2022-07-29T12:17:23;2.70;;;2.17;;
22060;SDS011;11194;48.092;-1.382;2022-07-29T12:19:51;5.22;;;2.42;;
22060;SDS011;11194;48.092;-1.382;2022-07-29T12:22:26;2.60;;;1.90;;
22060;SDS011;11194;48.092;-1.382;2022-07-29T12:24:53;3.97;;;1.73;;
22060;SDS011;11194;48.092;-1.382;2022-07-29T12:27:19;3.83;;;1.77;;
22060;SDS011;11194;48.092;-1.382;2022-07-29T12:29:57;6.22;;;2.00;;
22060;SDS011;11194;48.092;-1.382;2022-07-29T12:32:33;4.10;;;2.03;;
22060;SDS011;11194;48.092;-1.382;2022-07-29T12:35:00;5.57;;;2.10;;
22060;SDS011;11194;48.092;-1.382;2022-07-29T12:37:27;2.92;;;1.88;;
22060;SDS011;11194;48.092;-1.382;2022-07-29T12:39:54;4.80;;;2.20;;
22060;SDS011;11194;48.092;-1.382;2022-07-29T12:42:20;8.48;;;2.13;;
22060;SDS011;11194;48.092;-1.382;2022-07-29T12:44:46;6.60;;;1.95;;
22060;SDS011;11194;48.092;-1.382;2022-07-29T12:47:12;5.50;;;2.13;;
22060;SDS011;11194;48.092;-1.382;2022-07-29T12:49:38;2.78;;;1.75;;
22060;SDS011;11194;48.092;-1.382;2022-07-29T12:52:25;3.60;;;2.00;;
22060;SDS011;11194;48.092;-1.382;2022-07-29T12:54:52;3.63;;;1.80;;
22060;SDS011;11194;48.092;-1.382;2022-07-29T12:57:18;5.80;;;2.25;;
22060;SDS011;11194;48.092;-1.382;2022-07-29T12:59:44;4.15;;;2.38;;
22060;SDS011;11194;48.092;-1.382;2022-07-29T13:02:22;5.25;;;2.25;;
22060;SDS011;11194;48.092;-1.382;2022-07-29T13:04:58;4.55;;;1.95;;
22060;SDS011;11194;48.092;-1.382;2022-07-29T13:07:28;6.65;;;2.00;;
22060;SDS011;11194;48.092;-1.382;2022-07-29T13:13:00;4.47;;;2.13;;
22060;SDS011;11194;48.092;-1.382;2022-07-29T13:15:25;4.20;;;2.10;;
22060;SDS011;11194;48.092;-1.382;2022-07-29T13:17:52;3.70;;;1.80;;
22060;SDS011;11194;48.092;-1.382;2022-07-29T13:20:18;5.10;;;1.98;;
22060;SDS011;11194;48.092;-1.382;2022-07-29T13:22:47;2.83;;;1.60;;
22060;SDS011;11194;48.092;-1.382;2022-07-29T13:25:13;4.30;;;1.92;;
22060;SDS011;11194;48.092;-1.382;2022-07-29T13:27:39;3.67;;;1.80;;
22060;SDS011;11194;48.092;-1.382;2022-07-29T13:30:06;4.47;;;1.85;;
22060;SDS011;11194;48.092;-1.382;2022-07-29T13:32:34;4.15;;;2.00;;
22060;SDS011;11194;48.092;-1.382;2022-07-29T13:35:04;2.17;;;1.77;;
22060;SDS011;11194;48.092;-1.382;2022-07-29T13:37:30;2.95;;;1.90;;
22060;SDS011;11194;48.092;-1.382;2022-07-29T13:39:58;2.70;;;1.90;;
22060;SDS011;11194;48.092;-1.382;2022-07-29T13:42:25;3.72;;;2.10;;
22060;SDS011;11194;48.092;-1.382;2022-07-29T13:44:51;3.17;;;1.85;;
22060;SDS011;11194;48.092;-1.382;2022-07-29T13:47:18;5.15;;;2.20;;
22060;SDS011;11194;48.092;-1.382;2022-07-29T13:49:44;3.60;;;1.75;;
22060;SDS011;11194;48.092;-1.382;2022-07-29T13:52:10;4.32;;;1.75;;
22060;SDS011;11194;48.092;-1.382;2022-07-29T13:54:37;5.97;;;2.00;;
22060;SDS011;11194;48.092;-1.382;2022-07-29T13:57:06;3.33;;;2.20;;
22060;SDS011;11194;48.092;-1.382;2022-07-29T13:59:32;3.22;;;1.90;;
22060;SDS011;11194;48.092;-1.382;2022-07-29T14:01:58;3.58;;;2.30;;
22060;SDS011;11194;48.092;-1.382;2022-07-29T14:04:24;3.28;;;1.70;;
22060;SDS011;11194;48.092;-1.382;2022-07-29T14:06:50;2.88;;;1.80;;
22060;SDS011;11194;48.092;-1.382;2022-07-29T14:09:17;6.65;;;2.45;;
22060;SDS011;11194;48.092;-1.382;2022-07-29T14:11:43;2.75;;;1.90;;
22060;SDS011;11194;48.092;-1.382;2022-07-29T14:14:09;3.60;;;1.95;;
22060;SDS011;11194;48.092;-1.382;2022-07-29T14:16:35;6.55;;;2.15;;
22060;SDS011;11194;48.092;-1.382;2022-07-29T14:19:02;2.97;;;1.90;;
22060;SDS011;11194;48.092;-1.382;2022-07-29T14:21:28;5.43;;;1.90;;
22060;SDS011;11194;48.092;-1.382;2022-07-29T14:23:54;5.03;;;2.08;;
22060;SDS011;11194;48.092;-1.382;2022-07-29T14:26:20;3.90;;;2.13;;
22060;SDS011;11194;48.092;-1.382;2022-07-29T14:28:47;3.15;;;1.80;;
22060;SDS011;11194;48.092;-1.382;2022-07-29T14:31:13;3.00;;;1.77;;
22060;SDS011;11194;48.092;-1.382;2022-07-29T14:33:39;2.85;;;1.90;;
22060;SDS011;11194;48.092;-1.382;2022-07-29T14:36:05;3.00;;;1.98;;
22060;SDS011;11194;48.092;-1.382;2022-07-29T14:38:31;6.60;;;2.40;;
22060;SDS011;11194;48.092;-1.382;2022-07-29T14:40:57;3.53;;;1.70;;
22060;SDS011;11194;48.092;-1.382;2022-07-29T14:43:23;4.22;;;2.05;;
22060;SDS011;11194;48.092;-1.382;2022-07-29T14:45:49;2.65;;;1.70;;
22060;SDS011;11194;48.092;-1.382;2022-07-29T14:48:15;2.83;;;1.70;;
22060;SDS011;11194;48.092;-1.382;2022-07-29T14:50:41;8.52;;;2.22;;
22060;SDS011;11194;48.092;-1.382;2022-07-29T14:53:07;3.08;;;1.95;;
22060;SDS011;11194;48.092;-1.382;2022-07-29T14:55:33;2.38;;;2.13;;
22060;SDS011;11194;48.092;-1.382;2022-07-29T14:58:00;3.70;;;1.70;;
22060;SDS011;11194;48.092;-1.382;2022-07-29T15:00:26;3.53;;;1.90;;
22060;SDS011;11194;48.092;-1.382;2022-07-29T15:02:52;3.97;;;1.67;;
22060;SDS011;11194;48.092;-1.382;2022-07-29T15:05:18;4.15;;;2.25;;
22060;SDS011;11194;48.092;-1.382;2022-07-29T15:07:44;4.65;;;2.10;;
22060;SDS011;11194;48.092;-1.382;2022-07-29T15:10:10;2.40;;;2.00;;
22060;SDS011;11194;48.092;-1.382;2022-07-29T15:12:37;2.63;;;2.10;;
22060;SDS011;11194;48.092;-1.382;2022-07-29T15:15:03;4.35;;;2.30;;
22060;SDS011;11194;48.092;-1.382;2022-07-29T15:17:29;3.38;;;2.10;;
22060;SDS011;11194;48.092;-1.382;2022-07-29T15:19:55;5.35;;;2.10;;
22060;SDS011;11194;48.092;-1.382;2022-07-29T15:22:21;4.78;;;2.08;;
22060;SDS011;11194;48.092;-1.382;2022-07-29T15:24:47;5.15;;;2.30;;
22060;SDS011;11194;48.092;-1.382;2022-07-29T15:27:13;4.32;;;2.10;;
22060;SDS011;11194;48.092;-1.382;2022-07-29T15:29:42;5.18;;;1.95;;
22060;SDS011;11194;48.092;-1.382;2022-07-29T15:32:08;2.13;;;1.92;;
22060;SDS011;11194;48.092;-1.382;2022-07-29T15:34:36;4.22;;;2.15;;
22060;SDS011;11194;48.092;-1.382;2022-07-29T15:37:02;4.90;;;2.03;;
22060;SDS011;11194;48.092;-1.382;2022-07-29T15:39:29;2.67;;;1.85;;
22060;SDS011;11194;48.092;-1.382;2022-07-29T15:41:55;2.75;;;1.83;;
22060;SDS011;11194;48.092;-1.382;2022-07-29T15:44:21;3.95;;;1.80;;
22060;SDS011;11194;48.092;-1.382;2022-07-29T15:46:47;2.63;;;1.80;;
22060;SDS011;11194;48.092;-1.382;2022-07-29T15:49:30;2.72;;;1.73;;
22060;SDS011;11194;48.092;-1.382;2022-07-29T15:52:03;4.47;;;2.00;;
22060;SDS011;11194;48.092;-1.382;2022-07-29T15:54:31;3.97;;;2.03;;
22060;SDS011;11194;48.092;-1.382;2022-07-29T15:56:57;3.13;;;1.90;;
22060;SDS011;11194;48.092;-1.382;2022-07-29T15:59:23;3.33;;;1.90;;
22060;SDS011;11194;48.092;-1.382;2022-07-29T16:01:49;5.53;;;1.80;;
22060;SDS011;11194;48.092;-1.382;2022-07-29T16:04:15;2.03;;;1.80;;
22060;SDS011;11194;48.092;-1.382;2022-07-29T16:06:42;1.98;;;1.67;;
22060;SDS011;11194;48.092;-1.382;2022-07-29T16:09:08;2.75;;;1.60;;
22060;SDS011;11194;48.092;-1.382;2022-07-29T16:11:34;3.35;;;1.90;;
22060;SDS011;11194;48.092;-1.382;2022-07-29T16:14:00;4.03;;;1.90;;
22060;SDS011;11194;48.092;-1.382;2022-07-29T16:16:26;4.22;;;2.10;;
22060;SDS011;11194;48.092;-1.382;2022-07-29T16:18:53;2.28;;;1.70;;
22060;SDS011;11194;48.092;-1.382;2022-07-29T16:21:19;5.38;;;2.00;;
22060;SDS011;11194;48.092;-1.382;2022-07-29T16:23:46;3.35;;;1.83;;
22060;SDS011;11194;48.092;-1.382;2022-07-29T16:26:12;2.65;;;2.00;;
22060;SDS011;11194;48.092;-1.382;2022-07-29T16:28:39;2.38;;;1.90;;
22060;SDS011;11194;48.092;-1.382;2022-07-29T16:31:05;2.35;;;1.90;;
22060;SDS011;11194;48.092;-1.382;2022-07-29T16:33:31;3.17;;;1.90;;
22060;SDS011;11194;48.092;-1.382;2022-07-29T16:35:57;3.88;;;1.77;;
22060;SDS011;11194;48.092;-1.382;2022-07-29T16:38:23;3.92;;;1.80;;
22060;SDS011;11194;48.092;-1.382;2022-07-29T16:40:49;3.13;;;1.77;;
22060;SDS011;11194;48.092;-1.382;2022-07-29T16:43:15;4.63;;;2.13;;
22060;SDS011;11194;48.092;-1.382;2022-07-29T16:45:42;3.72;;;1.60;;
22060;SDS011;11194;48.092;-1.382;2022-07-29T16:48:08;3.85;;;1.80;;
22060;SDS011;11194;48.092;-1.382;2022-07-29T16:50:35;2.70;;;1.92;;
22060;SDS011;11194;48.092;-1.382;2022-07-29T16:53:01;2.13;;;1.77;;
22060;SDS011;11194;48.092;-1.382;2022-07-29T16:55:27;2.38;;;1.77;;
22060;SDS011;11194;48.092;-1.382;2022-07-29T16:57:53;2.55;;;1.73;;
22060;SDS011;11194;48.092;-1.382;2022-07-29T17:00:19;5.85;;;2.20;;
22060;SDS011;11194;48.092;-1.382;2022-07-29T17:02:46;4.85;;;2.00;;
22060;SDS011;11194;48.092;-1.382;2022-07-29T17:05:13;2.78;;;1.85;;
22060;SDS011;11194;48.092;-1.382;2022-07-29T17:07:39;3.97;;;1.80;;
22060;SDS011;11194;48.092;-1.382;2022-07-29T17:10:06;3.35;;;1.88;;
22060;SDS011;11194;48.092;-1.382;2022-07-29T17:12:33;2.65;;;1.70;;
22060;SDS011;11194;48.092;-1.382;2022-07-29T17:15:00;19.67;;;3.05;;
22060;SDS011;11194;48.092;-1.382;2022-07-29T17:17:26;7.85;;;2.60;;
22060;SDS011;11194;48.092;-1.382;2022-07-29T17:19:52;6.38;;;2.50;;
22060;SDS011;11194;48.092;-1.382;2022-07-29T17:22:18;7.07;;;2.78;;
22060;SDS011;11194;48.092;-1.382;2022-07-29T17:24:45;7.88;;;2.47;;
22060;SDS011;11194;48.092;-1.382;2022-07-29T17:27:11;6.75;;;3.08;;
22060;SDS011;11194;48.092;-1.382;2022-07-29T17:29:37;7.07;;;2.58;;
22060;SDS011;11194;48.092;-1.382;2022-07-29T17:32:04;4.50;;;2.33;;
22060;SDS011;11194;48.092;-1.382;2022-07-29T17:34:30;3.35;;;2.30;;
22060;SDS011;11194;48.092;-1.382;2022-07-29T17:36:56;6.70;;;2.45;;